createdAt,value
2018-11-11T00:00:45.951Z,19.46
2018-11-11T00:01:46.105Z,19.5
2018-11-11T00:02:46.137Z,19.47
2018-11-11T00:03:47.088Z,19.46
2018-11-11T00:04:45.633Z,19.47
2018-11-11T00:05:45.486Z,19.46
2018-11-11T00:06:45.590Z,19.46
2018-11-11T00:07:45.839Z,19.5
2018-11-11T00:08:45.396Z,19.46
2018-11-11T00:09:45.689Z,19.47
2018-11-11T00:10:45.696Z,19.46
2018-11-11T00:11:45.614Z,19.47
2018-11-11T00:12:45.616Z,19.46
2018-11-11T00:13:45.588Z,19.46
2018-11-11T00:14:45.927Z,19.46
2018-11-11T00:15:45.671Z,19.44
2018-11-11T00:16:45.464Z,19.45
2018-11-11T00:17:45.594Z,19.45
2018-11-11T00:18:45.736Z,19.44
2018-11-11T00:19:45.540Z,19.45
2018-11-11T00:20:45.706Z,19.45
2018-11-11T00:21:46.634Z,19.45
2018-11-11T00:22:45.641Z,19.43
2018-11-11T00:23:45.470Z,19.45
2018-11-11T00:24:45.589Z,19.45
2018-11-11T00:25:45.454Z,19.46
2018-11-11T00:26:45.437Z,19.44
2018-11-11T00:27:45.720Z,19.43
2018-11-11T00:28:46.553Z,19.45
2018-11-11T00:29:45.688Z,19.44
2018-11-11T00:30:45.697Z,19.44
2018-11-11T00:31:45.721Z,19.45
2018-11-11T00:32:46.061Z,19.43
2018-11-11T00:33:45.530Z,19.4
2018-11-11T00:34:45.718Z,19.44
2018-11-11T00:35:45.443Z,19.45
2018-11-11T00:36:46.037Z,19.42
2018-11-11T00:37:45.793Z,19.44
2018-11-11T00:38:45.928Z,19.42
2018-11-11T00:39:46.912Z,19.44
2018-11-11T00:40:45.718Z,19.41
2018-11-11T00:41:45.561Z,19.42
2018-11-11T00:42:45.793Z,19.43
2018-11-11T00:43:45.714Z,19.44
2018-11-11T00:44:45.529Z,19.4
2018-11-11T00:45:45.587Z,19.4
2018-11-11T00:46:45.758Z,19.41
2018-11-11T00:47:45.736Z,19.44
2018-11-11T00:48:45.569Z,19.41
2018-11-11T00:49:45.532Z,19.4
2018-11-11T00:50:45.750Z,19.4
2018-11-11T00:51:45.979Z,19.4
2018-11-11T00:52:45.777Z,19.4
2018-11-11T00:53:46.080Z,19.42
2018-11-11T00:54:45.607Z,19.41
2018-11-11T00:55:45.697Z,19.4
2018-11-11T00:56:45.916Z,19.42
2018-11-11T00:57:45.713Z,19.4
2018-11-11T00:58:45.414Z,19.41
2018-11-11T00:59:45.665Z,19.39
2018-11-11T01:00:45.596Z,19.39
2018-11-11T01:01:45.787Z,19.4
2018-11-11T01:02:45.520Z,19.39
2018-11-11T01:03:45.596Z,19.39
2018-11-11T01:04:45.696Z,19.38
2018-11-11T01:05:45.867Z,19.38
2018-11-11T01:06:45.423Z,19.38
2018-11-11T01:07:45.616Z,19.4
2018-11-11T01:08:45.642Z,19.38
2018-11-11T01:09:45.574Z,19.41
2018-11-11T01:10:45.737Z,19.39
2018-11-11T01:11:45.768Z,19.38
2018-11-11T01:12:46.079Z,19.38
2018-11-11T01:13:45.701Z,19.38
2018-11-11T01:14:45.681Z,19.38
2018-11-11T01:15:45.605Z,19.38
2018-11-11T01:16:45.675Z,19.37
2018-11-11T01:17:45.736Z,19.39
2018-11-11T01:18:45.917Z,19.39
2018-11-11T01:19:45.954Z,19.37
2018-11-11T01:20:45.500Z,19.39
2018-11-11T01:21:45.856Z,19.37
2018-11-11T01:22:46.287Z,19.37
2018-11-11T01:23:45.992Z,19.37
2018-11-11T01:24:45.875Z,19.37
2018-11-11T01:25:45.777Z,19.38
2018-11-11T01:26:45.812Z,19.37
2018-11-11T01:27:45.535Z,19.38
2018-11-11T01:28:45.972Z,19.36
2018-11-11T01:29:46.020Z,19.38
2018-11-11T01:30:45.672Z,19.36
2018-11-11T01:31:45.486Z,19.36
2018-11-11T01:32:45.727Z,19.36
2018-11-11T01:33:45.935Z,19.38
2018-11-11T01:34:45.436Z,19.37
2018-11-11T01:35:45.625Z,19.33
2018-11-11T01:36:45.583Z,19.36
2018-11-11T01:37:45.420Z,19.36
2018-11-11T01:38:45.639Z,19.36
2018-11-11T01:39:45.631Z,19.33
2018-11-11T01:40:45.743Z,19.36
2018-11-11T01:41:45.649Z,19.35
2018-11-11T01:42:46.493Z,19.35
2018-11-11T01:43:45.573Z,19.33
2018-11-11T01:44:45.521Z,19.33
2018-11-11T01:45:45.543Z,19.32
2018-11-11T01:46:45.418Z,19.33
2018-11-11T01:47:45.978Z,19.33
2018-11-11T01:48:45.495Z,19.35
2018-11-11T01:49:45.611Z,19.33
2018-11-11T01:50:45.647Z,19.36
2018-11-11T01:51:45.589Z,19.36
2018-11-11T01:52:45.527Z,19.36
2018-11-11T01:53:45.467Z,19.35
2018-11-11T01:54:45.576Z,19.35
2018-11-11T01:55:45.608Z,19.35
2018-11-11T01:56:45.627Z,19.32
2018-11-11T01:57:45.680Z,19.33
2018-11-11T01:58:45.658Z,19.35
2018-11-11T01:59:46.129Z,19.33
2018-11-11T02:00:45.514Z,19.33
2018-11-11T02:01:45.596Z,19.35
2018-11-11T02:02:45.788Z,19.32
2018-11-11T02:03:45.860Z,19.33
2018-11-11T02:04:45.881Z,19.35
2018-11-11T02:05:45.551Z,19.32
2018-11-11T02:06:45.457Z,19.32
2018-11-11T02:07:45.668Z,19.31
2018-11-11T02:08:45.651Z,19.32
2018-11-11T02:09:46.432Z,19.31
2018-11-11T02:10:45.429Z,19.33
2018-11-11T02:11:45.445Z,19.32
2018-11-11T02:12:45.691Z,19.33
2018-11-11T02:13:45.734Z,19.32
2018-11-11T02:14:45.688Z,19.3
2018-11-11T02:15:45.516Z,19.31
2018-11-11T02:16:45.844Z,19.32
2018-11-11T02:17:46.099Z,19.32
2018-11-11T02:18:45.598Z,19.32
2018-11-11T02:19:45.344Z,19.32
2018-11-11T02:20:45.486Z,19.31
2018-11-11T02:21:46.393Z,19.31
2018-11-11T02:22:46.129Z,19.29
2018-11-11T02:23:45.710Z,19.29
2018-11-11T02:24:45.733Z,19.31
2018-11-11T02:25:45.834Z,19.29
2018-11-11T02:26:45.683Z,19.31
2018-11-11T02:27:45.739Z,19.31
2018-11-11T02:28:45.441Z,19.31
2018-11-11T02:29:45.446Z,19.3
2018-11-11T02:30:45.734Z,19.29
2018-11-11T02:31:45.741Z,19.29
2018-11-11T02:32:45.534Z,19.29
2018-11-11T02:33:45.757Z,19.29
2018-11-11T02:34:45.484Z,19.3
2018-11-11T02:35:46.003Z,19.3
2018-11-11T02:36:45.695Z,19.31
2018-11-11T02:37:47.088Z,19.3
2018-11-11T02:38:45.465Z,19.28
2018-11-11T02:39:46.038Z,19.29
2018-11-11T02:40:45.912Z,19.29
2018-11-11T02:41:45.580Z,19.29
2018-11-11T02:42:45.703Z,19.3
2018-11-11T02:43:45.749Z,19.29
2018-11-11T02:44:45.733Z,19.28
2018-11-11T02:45:45.455Z,19.27
2018-11-11T02:46:45.372Z,19.29
2018-11-11T02:47:45.840Z,19.29
2018-11-11T02:48:46.021Z,19.29
2018-11-11T02:49:45.835Z,19.28
2018-11-11T02:50:45.511Z,19.28
2018-11-11T02:51:45.907Z,19.29
2018-11-11T02:52:45.753Z,19.29
2018-11-11T02:53:45.763Z,19.28
2018-11-11T02:54:45.477Z,19.28
2018-11-11T02:55:45.353Z,19.3
2018-11-11T02:56:45.471Z,19.29
2018-11-11T02:57:45.640Z,19.28
2018-11-11T02:58:45.554Z,19.26
2018-11-11T02:59:45.863Z,19.27
2018-11-11T03:00:45.897Z,19.27
2018-11-11T03:01:45.681Z,19.28
2018-11-11T03:02:45.733Z,19.27
2018-11-11T03:03:45.503Z,19.27
2018-11-11T03:04:45.447Z,19.26
2018-11-11T03:05:45.729Z,19.26
2018-11-11T03:06:45.661Z,19.26
2018-11-11T03:07:45.811Z,19.25
2018-11-11T03:08:45.861Z,19.25
2018-11-11T03:09:45.553Z,19.27
2018-11-11T03:10:45.614Z,19.26
2018-11-11T03:11:45.461Z,19.27
2018-11-11T03:12:45.522Z,19.25
2018-11-11T03:13:45.442Z,19.27
2018-11-11T03:14:45.598Z,19.25
2018-11-11T03:15:45.537Z,19.25
2018-11-11T03:16:45.554Z,19.25
2018-11-11T03:17:45.806Z,19.23
2018-11-11T03:18:45.521Z,19.24
2018-11-11T03:19:45.615Z,19.27
2018-11-11T03:20:45.717Z,19.25
2018-11-11T03:21:45.599Z,19.26
2018-11-11T03:22:45.423Z,19.25
2018-11-11T03:23:45.448Z,19.25
2018-11-11T03:24:45.621Z,19.27
2018-11-11T03:25:45.545Z,19.25
2018-11-11T03:26:45.698Z,19.25
2018-11-11T03:27:45.498Z,19.25
2018-11-11T03:28:45.604Z,19.24
2018-11-11T03:29:45.528Z,19.24
2018-11-11T03:30:45.598Z,19.23
2018-11-11T03:31:45.667Z,19.23
2018-11-11T03:32:45.679Z,19.24
2018-11-11T03:33:45.905Z,19.23
2018-11-11T03:34:45.709Z,19.23
2018-11-11T03:35:45.577Z,19.24
2018-11-11T03:36:45.398Z,19.24
2018-11-11T03:37:45.525Z,19.24
2018-11-11T03:38:45.505Z,19.22
2018-11-11T03:39:45.745Z,19.24
2018-11-11T03:40:45.421Z,19.23
2018-11-11T03:41:45.472Z,19.21
2018-11-11T03:42:46.025Z,19.22
2018-11-11T03:43:45.495Z,19.21
2018-11-11T03:44:45.680Z,19.24
2018-11-11T03:45:45.417Z,19.24
2018-11-11T03:46:45.652Z,19.24
2018-11-11T03:47:45.796Z,19.22
2018-11-11T03:48:45.831Z,19.22
2018-11-11T03:49:45.325Z,19.22
2018-11-11T03:50:45.538Z,19.21
2018-11-11T03:51:45.722Z,19.23
2018-11-11T03:52:45.586Z,19.22
2018-11-11T03:53:45.628Z,19.22
2018-11-11T03:54:45.498Z,19.22
2018-11-11T03:55:45.606Z,19.21
2018-11-11T03:56:45.858Z,19.21
2018-11-11T03:57:45.543Z,19.18
2018-11-11T03:58:46.590Z,19.22
2018-11-11T03:59:45.931Z,19.21
2018-11-11T04:00:45.885Z,19.22
2018-11-11T04:01:45.515Z,19.21
2018-11-11T04:02:45.663Z,19.2
2018-11-11T04:03:45.378Z,19.21
2018-11-11T04:04:45.904Z,19.21
2018-11-11T04:05:45.423Z,19.2
2018-11-11T04:06:45.865Z,19.21
2018-11-11T04:07:45.519Z,19.18
2018-11-11T04:08:45.955Z,19.21
2018-11-11T04:09:45.975Z,19.2
2018-11-11T04:10:45.472Z,19.2
2018-11-11T04:11:45.745Z,19.2
2018-11-11T04:12:45.775Z,19.18
2018-11-11T04:13:46.007Z,19.21
2018-11-11T04:14:45.560Z,19.21
2018-11-11T04:15:45.614Z,19.2
2018-11-11T04:16:45.591Z,19.2
2018-11-11T04:17:45.819Z,19.18
2018-11-11T04:18:45.675Z,19.2
2018-11-11T04:19:45.505Z,19.18
2018-11-11T04:20:45.418Z,19.18
2018-11-11T04:21:45.933Z,19.17
2018-11-11T04:22:45.599Z,19.18
2018-11-11T04:23:45.574Z,19.17
2018-11-11T04:24:45.687Z,19.21
2018-11-11T04:25:45.395Z,19.17
2018-11-11T04:26:45.870Z,19.18
2018-11-11T04:27:45.459Z,19.18
2018-11-11T04:28:45.600Z,19.18
2018-11-11T04:29:45.693Z,19.18
2018-11-11T04:30:45.695Z,19.17
2018-11-11T04:31:45.729Z,19.18
2018-11-11T04:32:45.536Z,19.18
2018-11-11T04:33:45.847Z,19.18
2018-11-11T04:34:45.413Z,19.16
2018-11-11T04:35:45.603Z,19.16
2018-11-11T04:36:45.549Z,19.18
2018-11-11T04:37:45.498Z,19.17
2018-11-11T04:38:45.431Z,19.16
2018-11-11T04:39:45.424Z,19.15
2018-11-11T04:40:45.621Z,19.17
2018-11-11T04:41:45.674Z,19.18
2018-11-11T04:42:45.636Z,19.17
2018-11-11T04:43:45.376Z,19.17
2018-11-11T04:44:45.569Z,19.17
2018-11-11T04:45:45.558Z,19.17
2018-11-11T04:46:45.812Z,19.17
2018-11-11T04:47:45.476Z,19.17
2018-11-11T04:48:45.553Z,19.17
2018-11-11T04:49:45.719Z,19.16
2018-11-11T04:50:45.393Z,19.14
2018-11-11T04:51:45.564Z,19.16
2018-11-11T04:52:45.959Z,19.17
2018-11-11T04:53:45.578Z,19.16
2018-11-11T04:54:45.350Z,19.15
2018-11-11T04:55:45.695Z,19.15
2018-11-11T04:56:45.348Z,19.15
2018-11-11T04:57:45.332Z,19.16
2018-11-11T04:58:45.597Z,19.17
2018-11-11T04:59:45.569Z,19.15
2018-11-11T05:00:45.830Z,19.15
2018-11-11T05:01:45.348Z,19.15
2018-11-11T05:02:45.828Z,19.16
2018-11-11T05:03:45.394Z,19.16
2018-11-11T05:04:46.934Z,19.17
2018-11-11T05:05:45.754Z,19.17
2018-11-11T05:06:45.336Z,19.2
2018-11-11T05:07:45.701Z,19.18
2018-11-11T05:08:45.327Z,19.17
2018-11-11T05:09:45.486Z,19.18
2018-11-11T05:10:45.728Z,19.21
2018-11-11T05:11:45.415Z,19.21
2018-11-11T05:12:45.617Z,19.21
2018-11-11T05:13:45.713Z,19.22
2018-11-11T05:14:45.623Z,19.24
2018-11-11T05:15:45.308Z,19.23
2018-11-11T05:16:45.605Z,19.25
2018-11-11T05:17:45.468Z,19.25
2018-11-11T05:18:45.523Z,19.26
2018-11-11T05:19:45.320Z,19.25
2018-11-11T05:20:45.518Z,19.28
2018-11-11T05:21:46.826Z,19.27
2018-11-11T05:22:45.702Z,19.28
2018-11-11T05:23:46.055Z,19.29
2018-11-11T05:24:45.450Z,19.29
2018-11-11T05:25:45.535Z,19.32
2018-11-11T05:26:45.659Z,19.32
2018-11-11T05:27:45.696Z,19.35
2018-11-11T05:28:45.692Z,19.32
2018-11-11T05:29:45.532Z,19.36
2018-11-11T05:30:45.951Z,19.37
2018-11-11T05:31:45.772Z,19.39
2018-11-11T05:32:45.539Z,19.41
2018-11-11T05:33:45.621Z,19.41
2018-11-11T05:34:45.557Z,19.41
2018-11-11T05:35:45.366Z,19.43
2018-11-11T05:36:45.437Z,19.44
2018-11-11T05:37:45.588Z,19.44
2018-11-11T05:38:45.883Z,19.47
2018-11-11T05:39:45.571Z,19.46
2018-11-11T05:40:45.382Z,19.5
2018-11-11T05:41:46.008Z,19.46
2018-11-11T05:42:46.911Z,19.47
2018-11-11T05:43:45.865Z,19.5
2018-11-11T05:44:45.665Z,19.51
2018-11-11T05:45:45.792Z,19.53
2018-11-11T05:46:45.300Z,19.53
2018-11-11T05:47:45.284Z,19.52
2018-11-11T05:48:45.605Z,19.55
2018-11-11T05:49:45.538Z,19.54
2018-11-11T05:50:45.626Z,19.56
2018-11-11T05:51:45.311Z,19.56
2018-11-11T05:52:46.058Z,19.59
2018-11-11T05:53:45.377Z,19.59
2018-11-11T05:54:45.400Z,19.59
2018-11-11T05:55:45.573Z,19.6
2018-11-11T05:56:45.501Z,19.62
2018-11-11T05:57:45.519Z,19.62
2018-11-11T05:58:45.485Z,19.62
2018-11-11T05:59:45.927Z,19.62
2018-11-11T06:00:45.498Z,19.62
2018-11-11T06:01:45.729Z,19.66
2018-11-11T06:02:45.815Z,19.63
2018-11-11T06:03:45.526Z,19.67
2018-11-11T06:04:45.304Z,19.68
2018-11-11T06:05:45.659Z,19.68
2018-11-11T06:06:45.867Z,19.66
2018-11-11T06:07:45.475Z,19.68
2018-11-11T06:08:45.606Z,19.67
2018-11-11T06:09:45.328Z,19.69
2018-11-11T06:10:45.577Z,19.68
2018-11-11T06:11:45.356Z,19.69
2018-11-11T06:12:45.758Z,19.71
2018-11-11T06:13:45.634Z,19.68
2018-11-11T06:14:45.273Z,19.71
2018-11-11T06:15:45.609Z,19.71
2018-11-11T06:16:46.131Z,19.71
2018-11-11T06:17:45.549Z,19.71
2018-11-11T06:18:45.476Z,19.73
2018-11-11T06:19:45.464Z,19.71
2018-11-11T06:20:45.314Z,19.72
2018-11-11T06:21:45.542Z,19.73
2018-11-11T06:22:45.573Z,19.72
2018-11-11T06:23:45.481Z,19.75
2018-11-11T06:24:45.589Z,19.75
2018-11-11T06:25:45.452Z,19.74
2018-11-11T06:26:45.574Z,19.72
2018-11-11T06:27:45.462Z,19.74
2018-11-11T06:28:46.060Z,19.73
2018-11-11T06:29:45.403Z,19.73
2018-11-11T06:30:45.616Z,19.74
2018-11-11T06:31:45.327Z,19.74
2018-11-11T06:32:45.294Z,19.74
2018-11-11T06:33:45.425Z,19.75
2018-11-11T06:34:45.719Z,19.73
2018-11-11T06:35:45.890Z,19.75
2018-11-11T06:36:45.777Z,19.73
2018-11-11T06:37:45.641Z,19.73
2018-11-11T06:38:45.482Z,19.74
2018-11-11T06:39:45.827Z,19.74
2018-11-11T06:40:45.785Z,19.73
2018-11-11T06:41:45.307Z,19.74
2018-11-11T06:42:45.297Z,19.72
2018-11-11T06:43:45.803Z,19.75
2018-11-11T06:44:45.537Z,19.73
2018-11-11T06:45:45.730Z,19.73
2018-11-11T06:46:45.780Z,19.74
2018-11-11T06:47:45.382Z,19.74
2018-11-11T06:48:45.604Z,19.75
2018-11-11T06:49:45.709Z,19.75
2018-11-11T06:50:45.286Z,19.74
2018-11-11T06:51:45.530Z,19.74
2018-11-11T06:52:45.514Z,19.74
2018-11-11T06:53:45.602Z,19.75
2018-11-11T06:54:45.694Z,19.74
2018-11-11T06:55:45.728Z,19.74
2018-11-11T06:56:45.569Z,19.72
2018-11-11T06:57:45.735Z,19.74
2018-11-11T06:58:45.741Z,19.71
2018-11-11T06:59:45.511Z,19.75
2018-11-11T07:00:45.355Z,19.74
2018-11-11T07:01:45.697Z,19.74
2018-11-11T07:02:45.599Z,19.73
2018-11-11T07:03:45.663Z,19.73
2018-11-11T07:04:46.003Z,19.73
2018-11-11T07:05:45.507Z,19.73
2018-11-11T07:06:45.391Z,19.74
2018-11-11T07:07:45.300Z,19.75
2018-11-11T07:08:45.284Z,19.72
2018-11-11T07:09:45.505Z,19.73
2018-11-11T07:10:45.615Z,19.71
2018-11-11T07:11:45.938Z,19.73
2018-11-11T07:12:45.434Z,19.74
2018-11-11T07:13:46.267Z,19.71
2018-11-11T07:14:45.333Z,19.72
2018-11-11T07:15:45.869Z,19.72
2018-11-11T07:16:45.298Z,19.7
2018-11-11T07:17:45.434Z,19.71
2018-11-11T07:18:45.769Z,19.75
2018-11-11T07:19:45.521Z,19.72
2018-11-11T07:20:45.337Z,19.71
2018-11-11T07:21:45.473Z,19.71
2018-11-11T07:22:45.892Z,19.71
2018-11-11T07:23:46.471Z,19.7
2018-11-11T07:24:45.367Z,19.7
2018-11-11T07:25:45.241Z,19.71
2018-11-11T07:26:45.507Z,19.72
2018-11-11T07:27:45.838Z,19.7
2018-11-11T07:28:45.754Z,19.71
2018-11-11T07:29:45.811Z,19.71
2018-11-11T07:30:45.460Z,19.69
2018-11-11T07:31:45.886Z,19.71
2018-11-11T07:32:45.289Z,19.71
2018-11-11T07:33:45.676Z,19.71
2018-11-11T07:34:45.285Z,19.68
2018-11-11T07:35:45.738Z,19.71
2018-11-11T07:36:46.005Z,19.69
2018-11-11T07:37:45.351Z,19.7
2018-11-11T07:38:45.487Z,19.71
2018-11-11T07:39:45.495Z,19.7
2018-11-11T07:40:45.517Z,19.7
2018-11-11T07:41:45.537Z,19.7
2018-11-11T07:42:45.432Z,19.69
2018-11-11T07:43:45.274Z,19.7
2018-11-11T07:44:45.331Z,19.71
2018-11-11T07:45:45.394Z,19.71
2018-11-11T07:46:45.370Z,19.68
2018-11-11T07:47:46.258Z,19.69
2018-11-11T07:48:45.388Z,19.69
2018-11-11T07:49:45.413Z,19.69
2018-11-11T07:50:45.304Z,19.71
2018-11-11T07:51:45.789Z,19.68
2018-11-11T07:52:45.368Z,19.68
2018-11-11T07:53:45.374Z,19.68
2018-11-11T07:54:46.105Z,19.69
2018-11-11T07:55:45.529Z,19.69
2018-11-11T07:56:45.465Z,19.7
2018-11-11T07:57:45.431Z,19.7
2018-11-11T07:58:45.490Z,19.69
2018-11-11T07:59:45.365Z,19.69
2018-11-11T08:00:45.685Z,19.69
2018-11-11T08:01:46.478Z,19.69
2018-11-11T08:02:45.705Z,19.69
2018-11-11T08:03:45.652Z,19.68
2018-11-11T08:04:45.692Z,19.7
2018-11-11T08:05:45.496Z,19.7
2018-11-11T08:06:45.311Z,19.71
2018-11-11T08:07:45.387Z,19.69
2018-11-11T08:08:45.732Z,19.68
2018-11-11T08:09:45.503Z,19.7
2018-11-11T08:10:45.864Z,19.69
2018-11-11T08:11:45.385Z,19.7
2018-11-11T08:12:45.526Z,19.7
2018-11-11T08:13:45.478Z,19.68
2018-11-11T08:14:45.808Z,19.7
2018-11-11T08:15:45.677Z,19.7
2018-11-11T08:16:46.080Z,19.69
2018-11-11T08:17:45.254Z,19.7
2018-11-11T08:18:46.115Z,19.69
2018-11-11T08:19:45.335Z,19.7
2018-11-11T08:20:45.292Z,19.7
2018-11-11T08:21:45.497Z,19.69
2018-11-11T08:22:45.461Z,19.7
2018-11-11T08:23:45.697Z,19.71
2018-11-11T08:24:45.360Z,19.71
2018-11-11T08:25:45.396Z,19.69
2018-11-11T08:26:45.388Z,19.69
2018-11-11T08:27:45.845Z,19.69
2018-11-11T08:28:45.727Z,19.7
2018-11-11T08:29:45.199Z,19.72
2018-11-11T08:30:45.693Z,19.72
2018-11-11T08:31:45.705Z,19.68
2018-11-11T08:32:45.497Z,19.71
2018-11-11T08:33:45.403Z,19.72
2018-11-11T08:34:45.617Z,19.69
2018-11-11T08:35:45.426Z,19.71
2018-11-11T08:36:45.712Z,19.7
2018-11-11T08:37:45.559Z,19.7
2018-11-11T08:38:45.239Z,19.71
2018-11-11T08:39:45.956Z,19.71
2018-11-11T08:40:45.391Z,19.71
2018-11-11T08:41:45.813Z,19.72
2018-11-11T08:42:45.678Z,19.71
2018-11-11T08:43:45.688Z,19.71
2018-11-11T08:44:45.382Z,19.71
2018-11-11T08:45:45.494Z,19.71
2018-11-11T08:46:45.599Z,19.71
2018-11-11T08:47:45.196Z,19.72
2018-11-11T08:48:45.570Z,19.69
2018-11-11T08:49:45.438Z,19.73
2018-11-11T08:50:45.570Z,19.75
2018-11-11T08:51:45.838Z,19.71
2018-11-11T08:52:45.645Z,19.73
2018-11-11T08:53:45.462Z,19.72
2018-11-11T08:54:45.905Z,19.71
2018-11-11T08:55:45.374Z,19.71
2018-11-11T08:56:45.189Z,19.71
2018-11-11T08:57:46.018Z,19.72
2018-11-11T08:58:45.372Z,19.72
2018-11-11T08:59:45.538Z,19.73
2018-11-11T09:00:45.495Z,19.73
2018-11-11T09:01:45.368Z,19.71
2018-11-11T09:02:45.314Z,19.73
2018-11-11T09:03:45.626Z,19.72
2018-11-11T09:04:45.682Z,19.74
2018-11-11T09:05:45.237Z,19.72
2018-11-11T09:06:45.789Z,19.75
2018-11-11T09:07:45.643Z,19.73
2018-11-11T09:08:45.734Z,19.73
2018-11-11T09:09:45.770Z,19.74
2018-11-11T09:10:45.577Z,19.73
2018-11-11T09:11:45.356Z,19.74
2018-11-11T09:12:45.440Z,19.75
2018-11-11T09:13:45.270Z,19.73
2018-11-11T09:14:45.286Z,19.74
2018-11-11T09:15:45.385Z,19.75
2018-11-11T09:16:45.407Z,19.73
2018-11-11T09:17:45.547Z,19.74
2018-11-11T09:18:45.462Z,19.74
2018-11-11T09:19:45.279Z,19.73
2018-11-11T09:20:45.540Z,19.72
2018-11-11T09:21:45.472Z,19.73
2018-11-11T09:22:45.334Z,19.74
2018-11-11T09:23:46.351Z,19.73
2018-11-11T09:24:45.657Z,19.73
2018-11-11T09:25:45.662Z,19.73
2018-11-11T09:26:45.291Z,19.72
2018-11-11T09:27:45.339Z,19.72
2018-11-11T09:28:45.590Z,19.73
2018-11-11T09:29:47.244Z,19.75
2018-11-11T09:30:45.392Z,19.73
2018-11-11T09:31:45.660Z,19.75
2018-11-11T09:32:45.427Z,19.73
2018-11-11T09:33:45.526Z,19.74
2018-11-11T09:34:45.360Z,19.71
2018-11-11T09:35:45.228Z,19.73
2018-11-11T09:36:45.621Z,19.72
2018-11-11T09:37:45.558Z,19.73
2018-11-11T09:38:45.926Z,19.74
2018-11-11T09:39:45.787Z,19.75
2018-11-11T09:40:45.275Z,19.72
2018-11-11T09:41:45.879Z,19.75
2018-11-11T09:42:45.334Z,19.75
2018-11-11T09:43:45.268Z,19.72
2018-11-11T09:44:45.303Z,19.71
2018-11-11T09:45:45.722Z,19.74
2018-11-11T09:46:45.469Z,19.73
2018-11-11T09:47:46.246Z,19.73
2018-11-11T09:48:45.509Z,19.75
2018-11-11T09:49:45.413Z,19.73
2018-11-11T09:50:45.624Z,19.75
2018-11-11T09:51:45.948Z,19.73
2018-11-11T09:52:46.280Z,19.75
2018-11-11T09:53:45.766Z,19.75
2018-11-11T09:54:45.449Z,19.73
2018-11-11T09:55:45.860Z,19.74
2018-11-11T09:56:45.794Z,19.75
2018-11-11T09:57:45.834Z,19.72
2018-11-11T09:58:46.264Z,19.74
2018-11-11T09:59:46.398Z,19.74
2018-11-11T10:00:45.750Z,19.74
2018-11-11T10:01:45.664Z,19.74
2018-11-11T10:02:45.389Z,19.74
2018-11-11T10:03:45.551Z,19.74
2018-11-11T10:04:46.067Z,19.75
2018-11-11T10:05:45.444Z,19.75
2018-11-11T10:06:46.667Z,19.75
2018-11-11T10:07:46.049Z,19.74
2018-11-11T10:08:45.485Z,19.74
2018-11-11T10:09:45.658Z,19.75
2018-11-11T10:10:45.234Z,19.74
2018-11-11T10:11:45.451Z,19.76
2018-11-11T10:12:45.790Z,19.75
2018-11-11T10:13:45.410Z,19.75
2018-11-11T10:14:45.673Z,19.75
2018-11-11T10:15:45.415Z,19.75
2018-11-11T10:16:45.365Z,19.73
2018-11-11T10:17:45.265Z,19.74
2018-11-11T10:18:45.661Z,19.72
2018-11-11T10:19:45.678Z,19.75
2018-11-11T10:20:46.108Z,19.75
2018-11-11T10:21:45.701Z,19.75
2018-11-11T10:22:45.269Z,19.74
2018-11-11T10:23:45.458Z,19.75
2018-11-11T10:24:45.271Z,19.74
2018-11-11T10:25:45.426Z,19.75
2018-11-11T10:26:45.373Z,19.75
2018-11-11T10:27:45.324Z,19.73
2018-11-11T10:28:45.652Z,19.75
2018-11-11T10:29:46.038Z,19.75
2018-11-11T10:30:45.694Z,19.75
2018-11-11T10:31:45.442Z,19.77
2018-11-11T10:32:45.399Z,19.77
2018-11-11T10:33:45.191Z,19.82
2018-11-11T10:34:45.566Z,19.82
2018-11-11T10:35:45.808Z,19.82
2018-11-11T10:36:45.498Z,19.82
2018-11-11T10:37:45.322Z,19.85
2018-11-11T10:38:45.451Z,19.86
2018-11-11T10:39:45.353Z,19.86
2018-11-11T10:40:45.809Z,19.87
2018-11-11T10:41:45.431Z,19.88
2018-11-11T10:42:45.492Z,19.89
2018-11-11T10:43:45.287Z,19.89
2018-11-11T10:44:45.363Z,19.89
2018-11-11T10:45:45.197Z,19.91
2018-11-11T10:46:45.651Z,19.91
2018-11-11T10:47:45.287Z,19.95
2018-11-11T10:48:45.299Z,19.91
2018-11-11T10:49:45.270Z,19.95
2018-11-11T10:50:45.363Z,19.95
2018-11-11T10:51:45.192Z,19.99
2018-11-11T10:52:45.416Z,20.01
2018-11-11T10:53:45.983Z,19.97
2018-11-11T10:54:45.356Z,20
2018-11-11T10:55:45.419Z,19.99
2018-11-11T10:56:45.365Z,20
2018-11-11T10:57:45.374Z,20.02
2018-11-11T10:58:45.509Z,20
2018-11-11T10:59:45.725Z,20.02
2018-11-11T11:00:45.150Z,20.03
2018-11-11T11:01:45.403Z,20.03
2018-11-11T11:02:45.412Z,20.03
2018-11-11T11:03:45.280Z,20.04
2018-11-11T11:04:45.546Z,20.04
2018-11-11T11:05:45.219Z,20.03
2018-11-11T11:06:45.678Z,20.04
2018-11-11T11:07:45.605Z,20.06
2018-11-11T11:08:45.343Z,20.07
2018-11-11T11:09:45.274Z,20.05
2018-11-11T11:10:45.790Z,20.07
2018-11-11T11:11:45.705Z,20.07
2018-11-11T11:12:45.313Z,20.06
2018-11-11T11:13:46.483Z,20.09
2018-11-11T11:14:45.190Z,20.07
2018-11-11T11:15:45.318Z,20.11
2018-11-11T11:16:45.801Z,20.1
2018-11-11T11:17:45.581Z,20.12
2018-11-11T11:18:45.539Z,20.1
2018-11-11T11:19:45.776Z,20.13
2018-11-11T11:20:45.979Z,20.11
2018-11-11T11:21:45.239Z,20.12
2018-11-11T11:22:46.006Z,20.13
2018-11-11T11:23:45.302Z,20.13
2018-11-11T11:24:45.273Z,20.12
2018-11-11T11:25:46.218Z,20.15
2018-11-11T11:26:45.383Z,20.12
2018-11-11T11:27:45.374Z,20.15
2018-11-11T11:28:46.107Z,20.14
2018-11-11T11:29:45.409Z,20.15
2018-11-11T11:30:45.395Z,20.14
2018-11-11T11:31:47.404Z,20.16
2018-11-11T11:32:45.573Z,20.16
2018-11-11T11:33:45.387Z,20.17
2018-11-11T11:34:45.592Z,20.16
2018-11-11T11:35:46.921Z,20.17
2018-11-11T11:36:45.341Z,20.16
2018-11-11T11:37:45.593Z,20.17
2018-11-11T11:38:45.209Z,20.16
2018-11-11T11:39:45.400Z,20.16
2018-11-11T11:40:45.645Z,20.17
2018-11-11T11:41:45.638Z,20.18
2018-11-11T11:42:45.541Z,20.18
2018-11-11T11:43:45.353Z,20.19
2018-11-11T11:44:45.878Z,20.19
2018-11-11T11:45:45.950Z,20.19
2018-11-11T11:46:45.665Z,20.18
2018-11-11T11:47:45.893Z,20.19
2018-11-11T11:48:45.303Z,20.2
2018-11-11T11:49:45.631Z,20.2
2018-11-11T11:50:45.803Z,20.2
2018-11-11T11:51:46.174Z,20.2
2018-11-11T11:52:45.792Z,20.22
2018-11-11T11:53:45.817Z,20.21
2018-11-11T11:54:45.443Z,20.22
2018-11-11T11:55:45.477Z,20.24
2018-11-11T11:56:45.175Z,20.22
2018-11-11T11:57:45.385Z,20.21
2018-11-11T11:58:45.682Z,20.22
2018-11-11T11:59:45.223Z,20.21
2018-11-11T12:00:45.488Z,20.24
2018-11-11T12:01:45.555Z,20.24
2018-11-11T12:02:45.712Z,20.26
2018-11-11T12:03:45.498Z,20.24
2018-11-11T12:04:45.349Z,20.25
2018-11-11T12:05:45.201Z,20.25
2018-11-11T12:06:45.657Z,20.25
2018-11-11T12:07:45.634Z,20.26
2018-11-11T12:08:46.521Z,20.25
2018-11-11T12:09:45.259Z,20.27
2018-11-11T12:10:45.458Z,20.24
2018-11-11T12:11:45.907Z,20.26
2018-11-11T12:12:45.980Z,20.25
2018-11-11T12:13:45.243Z,20.25
2018-11-11T12:14:45.668Z,20.27
2018-11-11T12:15:45.295Z,20.27
2018-11-11T12:16:46.300Z,20.27
2018-11-11T12:17:45.167Z,20.27
2018-11-11T12:18:45.391Z,20.26
2018-11-11T12:19:45.557Z,20.27
2018-11-11T12:20:45.508Z,20.26
2018-11-11T12:21:45.165Z,20.25
2018-11-11T12:22:45.502Z,20.24
2018-11-11T12:23:45.201Z,20.24
2018-11-11T12:24:45.235Z,20.24
2018-11-11T12:25:45.446Z,20.24
2018-11-11T12:26:45.376Z,20.24
2018-11-11T12:27:45.328Z,20.22
2018-11-11T12:28:45.268Z,20.24
2018-11-11T12:29:45.425Z,20.24
2018-11-11T12:30:45.956Z,20.2
2018-11-11T12:31:45.706Z,20.21
2018-11-11T12:32:45.279Z,20.21
2018-11-11T12:33:45.286Z,20.21
2018-11-11T12:34:45.333Z,20.2
2018-11-11T12:35:45.385Z,20.2
2018-11-11T12:36:45.760Z,20.21
2018-11-11T12:37:45.353Z,20.2
2018-11-11T12:38:45.673Z,20.2
2018-11-11T12:39:46.558Z,20.2
2018-11-11T12:40:45.229Z,20.16
2018-11-11T12:41:45.549Z,20.16
2018-11-11T12:42:45.506Z,20.16
2018-11-11T12:43:45.332Z,20.13
2018-11-11T12:44:45.857Z,20.15
2018-11-11T12:45:45.376Z,20.17
2018-11-11T12:46:46.568Z,20.16
2018-11-11T12:47:45.352Z,20.16
2018-11-11T12:48:45.619Z,20.14
2018-11-11T12:49:45.768Z,20.13
2018-11-11T12:50:45.452Z,20.12
2018-11-11T12:51:45.544Z,20.15
2018-11-11T12:52:45.357Z,20.11
2018-11-11T12:53:45.328Z,20.12
2018-11-11T12:54:45.808Z,20.12
2018-11-11T12:55:46.156Z,20.09